createdAt,value
2019-03-01T00:01:28.687Z,10.60
2019-03-01T00:04:29.971Z,10.60
2019-03-01T00:07:57.750Z,10.60
2019-03-01T00:11:07.151Z,10.60
2019-03-01T00:14:24.420Z,10.50
2019-03-01T00:17:54.103Z,10.60
2019-03-01T00:20:51.643Z,10.50
2019-03-01T00:23:54.899Z,10.50
2019-03-01T00:27:20.787Z,10.50
2019-03-01T00:30:45.663Z,10.50
2019-03-01T00:34:05.243Z,10.50
2019-03-01T00:37:22.142Z,10.40
2019-03-01T00:40:43.708Z,10.40
2019-03-01T00:44:11.007Z,10.50
2019-03-01T00:46:58.750Z,10.40
2019-03-01T00:49:47.072Z,10.40
2019-03-01T00:52:35.171Z,10.30
2019-03-01T00:55:23.891Z,10.30
2019-03-01T00:58:12.154Z,10.40
2019-03-01T01:01:00.503Z,10.40
2019-03-01T01:03:49.163Z,10.40
2019-03-01T01:06:36.965Z,10.40
2019-03-01T01:09:24.748Z,10.30
2019-03-01T01:12:13.347Z,10.30
2019-03-01T01:15:01.078Z,10.20
2019-03-01T01:17:49.018Z,10.20
2019-03-01T01:20:37.638Z,10.20
2019-03-01T01:23:25.623Z,10.20
2019-03-01T01:26:14.209Z,10.20
2019-03-01T01:29:02.824Z,10.10
2019-03-01T01:31:50.838Z,10.10
2019-03-01T01:34:38.771Z,10.20
2019-03-01T01:37:27.326Z,10.20
2019-03-01T01:40:15.185Z,10.20
2019-03-01T01:43:03.439Z,10.20
2019-03-01T01:45:51.844Z,10.20
2019-03-01T01:48:40.391Z,10.20
2019-03-01T01:51:28.803Z,10.20
2019-03-01T01:54:17.525Z,10.20
2019-03-01T01:57:05.655Z,10.00
2019-03-01T01:59:53.214Z,10.00
2019-03-01T02:02:41.680Z,9.90
2019-03-01T02:05:30.295Z,9.90
2019-03-01T02:08:18.343Z,9.90
2019-03-01T02:11:06.408Z,9.90
2019-03-01T02:13:54.426Z,9.90
2019-03-01T02:16:43.037Z,10.00
2019-03-01T02:19:30.610Z,10.00
2019-03-01T02:22:18.683Z,10.00
2019-03-01T02:25:08.504Z,10.00
2019-03-01T02:27:56.790Z,10.00
2019-03-01T02:30:45.666Z,9.90
2019-03-01T02:33:34.058Z,9.90
2019-03-01T02:36:21.791Z,9.90
2019-03-01T02:39:10.163Z,9.90
2019-03-01T02:41:58.531Z,9.90
2019-03-01T02:44:46.547Z,10.00
2019-03-01T02:47:34.436Z,10.00
2019-03-01T02:50:22.534Z,9.90
2019-03-01T02:53:11.311Z,10.00
2019-03-01T02:55:59.802Z,10.00
2019-03-01T02:58:47.976Z,10.00
2019-03-01T03:01:36.252Z,10.00
2019-03-01T03:04:24.708Z,10.00
2019-03-01T03:07:21.079Z,10.00
2019-03-01T03:10:09.107Z,9.90
2019-03-01T03:13:02.667Z,10.00
2019-03-01T03:15:52.812Z,10.00
2019-03-01T03:18:40.876Z,10.00
2019-03-01T03:21:29.170Z,10.00
2019-03-01T03:24:16.708Z,10.00
2019-03-01T03:27:04.792Z,9.90
2019-03-01T03:29:53.343Z,9.90
2019-03-01T03:32:41.114Z,9.80
2019-03-01T03:35:29.088Z,9.70
2019-03-01T03:38:17.628Z,9.60
2019-03-01T03:41:06.369Z,9.60
2019-03-01T03:43:54.568Z,9.70
2019-03-01T03:46:42.052Z,9.70
2019-03-01T03:49:30.340Z,9.70
2019-03-01T03:52:18.931Z,9.70
2019-03-01T03:55:08.528Z,9.60
2019-03-01T03:57:56.184Z,9.70
2019-03-01T04:00:43.913Z,9.60
2019-03-01T04:03:32.313Z,9.70
2019-03-01T04:06:20.546Z,9.60
2019-03-01T04:09:09.082Z,9.70
2019-03-01T04:11:57.148Z,9.70
2019-03-01T04:14:45.688Z,9.70
2019-03-01T04:17:33.426Z,9.80
2019-03-01T04:20:21.633Z,9.80
2019-03-01T04:23:10.091Z,9.80
2019-03-01T04:25:57.659Z,9.80
2019-03-01T04:28:45.979Z,9.70
2019-03-01T04:31:33.775Z,9.70
2019-03-01T04:34:22.216Z,9.70
2019-03-01T04:37:09.783Z,9.70
2019-03-01T04:39:58.075Z,9.70
2019-03-01T04:42:46.019Z,9.70
2019-03-01T04:45:33.753Z,9.70
2019-03-01T04:48:22.083Z,9.70
2019-03-01T04:51:10.520Z,9.60
2019-03-01T04:53:58.544Z,9.70
2019-03-01T04:56:47.175Z,9.70
2019-03-01T04:59:34.892Z,9.60
2019-03-01T05:02:23.072Z,9.70
2019-03-01T05:05:11.532Z,9.70
2019-03-01T05:07:59.484Z,9.70
2019-03-01T05:10:47.663Z,9.60
2019-03-01T05:13:35.847Z,9.70
2019-03-01T05:16:24.407Z,9.70
2019-03-01T05:19:12.580Z,9.70
2019-03-01T05:22:00.584Z,9.70
2019-03-01T05:24:49.136Z,9.70
2019-03-01T05:27:37.790Z,9.70
2019-03-01T05:30:26.255Z,9.80
2019-03-01T05:33:14.751Z,9.80
2019-03-01T05:36:02.790Z,9.80
2019-03-01T05:38:51.275Z,9.80
2019-03-01T05:41:39.650Z,9.70
2019-03-01T05:44:28.221Z,9.70
2019-03-01T05:47:15.690Z,9.70
2019-03-01T05:50:06.993Z,9.70
2019-03-01T05:52:54.145Z,9.60
2019-03-01T05:55:41.723Z,9.60
2019-03-01T05:58:38.667Z,9.50
2019-03-01T06:01:31.103Z,9.50
2019-03-01T06:04:32.092Z,9.60
2019-03-01T06:08:03.460Z,9.50
2019-03-01T06:11:12.956Z,9.50
2019-03-01T06:14:27.206Z,9.50
2019-03-01T06:17:50.244Z,9.50
2019-03-01T06:21:02.246Z,9.50
2019-03-01T06:24:12.692Z,9.60
2019-03-01T06:27:33.616Z,9.50
2019-03-01T06:30:33.536Z,9.60
2019-03-01T06:34:01.474Z,9.70
2019-03-01T06:37:24.618Z,9.70
2019-03-01T06:40:50.450Z,9.70
2019-03-01T06:43:52.667Z,9.60
2019-03-01T06:46:58.950Z,9.70
2019-03-01T06:49:58.080Z,9.70
2019-03-01T06:52:46.804Z,9.70
2019-03-01T06:56:02.568Z,9.60
2019-03-01T06:58:52.935Z,9.70
2019-03-01T07:01:47.551Z,9.80
2019-03-01T07:04:35.732Z,9.70
2019-03-01T07:07:24.115Z,9.70
2019-03-01T07:10:14.157Z,9.70
2019-03-01T07:13:01.684Z,9.70
2019-03-01T07:15:49.859Z,9.80
2019-03-01T07:18:37.769Z,9.80
2019-03-01T07:21:25.468Z,9.80
2019-03-01T07:24:14.098Z,9.70
2019-03-01T07:27:02.435Z,9.80
2019-03-01T07:29:50.558Z,9.80
2019-03-01T07:32:38.508Z,9.80
2019-03-01T07:35:26.991Z,9.80
2019-03-01T07:38:15.146Z,9.80
2019-03-01T07:41:03.772Z,9.90
2019-03-01T07:43:51.558Z,9.90
2019-03-01T07:46:39.671Z,9.90
2019-03-01T07:49:27.949Z,9.90
2019-03-01T07:52:16.225Z,10.00
2019-03-01T07:55:05.220Z,10.00
2019-03-01T07:57:53.087Z,9.90
2019-03-01T08:00:41.442Z,9.80
2019-03-01T08:03:29.495Z,9.80
2019-03-01T08:06:17.093Z,9.80
2019-03-01T08:09:12.792Z,9.80
2019-03-01T08:12:03.668Z,9.80
2019-03-01T08:14:50.047Z,9.80
2019-03-01T08:17:38.486Z,9.80
2019-03-01T08:20:26.524Z,9.80
2019-03-01T08:23:14.515Z,9.90
2019-03-01T08:26:03.617Z,10.00
2019-03-01T08:28:54.746Z,9.90
2019-03-01T08:31:41.831Z,9.80
2019-03-01T08:34:29.388Z,9.80
2019-03-01T08:37:17.565Z,9.80
2019-03-01T08:40:11.497Z,9.80
2019-03-01T08:42:59.168Z,9.80
2019-03-01T08:45:48.105Z,9.70
2019-03-01T08:48:35.951Z,9.70
2019-03-01T08:51:26.586Z,9.80
2019-03-01T08:54:14.468Z,9.70
2019-03-01T08:57:02.927Z,9.60
2019-03-01T08:59:50.815Z,9.50
2019-03-01T09:02:39.077Z,9.50
2019-03-01T09:05:27.301Z,9.40
2019-03-01T09:08:15.646Z,9.40
2019-03-01T09:11:05.535Z,9.40
2019-03-01T09:13:53.713Z,9.40
2019-03-01T09:16:42.452Z,9.50
2019-03-01T09:19:30.943Z,9.50
2019-03-01T09:22:19.411Z,9.50
2019-03-01T09:25:08.846Z,9.50
2019-03-01T09:27:57.664Z,9.50
2019-03-01T09:30:46.258Z,9.50
2019-03-01T09:33:33.859Z,9.60
2019-03-01T09:36:29.739Z,9.50
2019-03-01T09:39:19.025Z,9.30
2019-03-01T09:42:07.530Z,9.20
2019-03-01T09:44:55.158Z,9.30
2019-03-01T09:47:43.341Z,9.20
2019-03-01T09:50:34.646Z,9.30
2019-03-01T09:53:21.716Z,9.30
2019-03-01T09:56:12.966Z,9.20
2019-03-01T09:59:00.451Z,9.10
2019-03-01T10:01:48.063Z,9.20
2019-03-01T10:04:36.036Z,9.20
2019-03-01T10:07:23.989Z,9.10
2019-03-01T10:10:13.159Z,9.10
2019-03-01T10:13:01.659Z,9.10
2019-03-01T10:15:49.360Z,9.10
2019-03-01T10:18:37.640Z,9.00
2019-03-01T10:21:26.368Z,9.10
2019-03-01T10:24:14.173Z,9.20
2019-03-01T10:27:03.106Z,9.20
2019-03-01T10:29:51.161Z,9.10
2019-03-01T10:32:39.449Z,9.10
2019-03-01T10:35:27.613Z,9.10
2019-03-01T10:38:16.027Z,9.10
2019-03-01T10:41:04.603Z,9.10
2019-03-01T10:43:53.099Z,9.10
2019-03-01T10:46:40.725Z,9.00
2019-03-01T10:49:29.051Z,9.00
2019-03-01T10:52:16.720Z,9.00
2019-03-01T10:55:04.834Z,8.90
2019-03-01T10:57:52.763Z,9.00
2019-03-01T11:00:41.434Z,9.00
2019-03-01T11:03:29.023Z,9.00
2019-03-01T11:06:17.395Z,9.00
2019-03-01T11:09:07.447Z,9.00
2019-03-01T11:11:55.936Z,9.00
2019-03-01T11:14:44.457Z,9.00
2019-03-01T11:17:32.528Z,9.10
2019-03-01T11:20:20.711Z,9.20
2019-03-01T11:23:09.023Z,9.00
2019-03-01T11:25:57.171Z,9.10
2019-03-01T11:28:45.639Z,9.20
2019-03-01T11:31:33.863Z,9.20
2019-03-01T11:34:22.042Z,9.10
2019-03-01T11:37:10.067Z,9.10
2019-03-01T11:39:58.667Z,9.20
2019-03-01T11:42:46.794Z,9.10
2019-03-01T11:45:34.698Z,9.20
2019-03-01T11:48:23.144Z,9.20
2019-03-01T11:51:11.724Z,9.20
2019-03-01T11:54:00.260Z,9.20
2019-03-01T11:56:48.319Z,9.10
2019-03-01T11:59:36.499Z,9.00
2019-03-01T12:02:25.155Z,8.80
2019-03-01T12:05:13.463Z,8.70
2019-03-01T12:08:01.699Z,8.50
2019-03-01T12:10:49.642Z,8.40
2019-03-01T12:13:37.939Z,8.40
2019-03-01T12:16:26.369Z,8.30
2019-03-01T12:19:14.837Z,8.20
2019-03-01T12:22:03.083Z,8.10
2019-03-01T12:24:50.707Z,8.10
2019-03-01T12:27:39.054Z,8.00
2019-03-01T12:30:27.608Z,7.90
2019-03-01T12:33:15.159Z,7.90
2019-03-01T12:36:03.767Z,7.80
2019-03-01T12:38:52.303Z,7.60
2019-03-01T12:41:40.582Z,7.60
2019-03-01T12:44:28.501Z,7.50
2019-03-01T12:47:16.687Z,7.60
2019-03-01T12:50:05.663Z,7.50
2019-03-01T12:52:54.172Z,7.50
2019-03-01T12:55:42.570Z,7.40
2019-03-01T12:58:30.778Z,7.40
2019-03-01T13:01:18.710Z,7.40
2019-03-01T13:04:07.139Z,7.40
2019-03-01T13:06:55.044Z,7.50
2019-03-01T13:09:42.959Z,7.40
2019-03-01T13:12:31.126Z,7.50
2019-03-01T13:15:19.370Z,7.40
2019-03-01T13:18:10.323Z,7.20
2019-03-01T13:20:57.561Z,7.20
2019-03-01T13:23:46.016Z,7.30
2019-03-01T13:26:34.384Z,7.20
2019-03-01T13:29:23.314Z,7.30
2019-03-01T13:32:11.664Z,7.50
2019-03-01T13:35:00.038Z,7.50
2019-03-01T13:37:48.075Z,7.60
2019-03-01T13:40:35.871Z,7.60
2019-03-01T13:43:27.395Z,7.50
2019-03-01T13:46:13.691Z,7.60
2019-03-01T13:49:01.863Z,7.70
2019-03-01T13:51:52.971Z,7.60
2019-03-01T13:54:42.370Z,7.50
2019-03-01T13:57:29.170Z,7.60
2019-03-01T14:00:18.347Z,7.60
2019-03-01T14:03:06.280Z,7.50
2019-03-01T14:05:54.701Z,7.40
2019-03-01T14:08:44.415Z,7.30
2019-03-01T14:11:32.706Z,7.30
2019-03-01T14:14:26.588Z,7.30
2019-03-01T14:17:10.275Z,7.30
2019-03-01T14:19:58.870Z,7.20
2019-03-01T14:22:47.946Z,7.30
2019-03-01T14:25:38.606Z,7.30
2019-03-01T14:28:26.608Z,7.20
2019-03-01T14:31:14.999Z,7.30
2019-03-01T14:34:02.515Z,7.40
2019-03-01T14:36:50.992Z,7.60
2019-03-01T14:39:41.723Z,7.70
2019-03-01T14:42:28.792Z,7.80
2019-03-01T14:45:19.271Z,7.70
2019-03-01T14:48:08.673Z,7.70
2019-03-01T14:50:56.355Z,7.70
2019-03-01T14:53:44.866Z,7.80
2019-03-01T14:56:36.828Z,7.60
2019-03-01T14:59:54.066Z,7.60
2019-03-01T15:02:56.099Z,7.60
2019-03-01T15:05:44.187Z,7.60
2019-03-01T15:08:31.879Z,7.50
2019-03-01T15:11:21.766Z,7.50
2019-03-01T15:14:13.411Z,7.40
2019-03-01T15:16:59.775Z,7.50
2019-03-01T15:19:47.898Z,7.50
2019-03-01T15:22:36.653Z,7.50
2019-03-01T15:25:24.774Z,7.50
2019-03-01T15:28:13.212Z,7.40
2019-03-01T15:31:01.384Z,7.40
2019-03-01T15:33:49.706Z,7.30
2019-03-01T15:36:37.716Z,7.30
2019-03-01T15:39:25.874Z,7.30
2019-03-01T15:42:17.432Z,7.30
2019-03-01T15:45:05.039Z,7.30
2019-03-01T15:47:53.429Z,7.30
2019-03-01T15:50:41.740Z,7.30
2019-03-01T15:53:29.864Z,7.30
2019-03-01T15:56:18.219Z,7.20
2019-03-01T15:59:09.669Z,7.20
2019-03-01T16:01:56.291Z,7.20
2019-03-01T16:04:44.885Z,7.20
2019-03-01T16:07:33.481Z,7.20
2019-03-01T16:10:22.352Z,7.00
2019-03-01T16:13:12.204Z,7.00
2019-03-01T16:16:00.715Z,7.00
2019-03-01T16:18:48.925Z,7.00
2019-03-01T16:21:39.788Z,6.90
2019-03-01T16:24:26.508Z,6.80
2019-03-01T16:27:15.332Z,6.70
2019-03-01T16:30:04.123Z,6.70
2019-03-01T16:32:52.547Z,6.70
2019-03-01T16:35:40.990Z,6.70
2019-03-01T16:38:29.450Z,6.70
2019-03-01T16:41:17.346Z,6.70
2019-03-01T16:44:06.989Z,6.50
2019-03-01T16:46:55.084Z,6.50
2019-03-01T16:49:43.318Z,6.50
2019-03-01T16:52:31.199Z,6.50
2019-03-01T16:55:19.280Z,6.50
2019-03-01T16:58:07.453Z,6.50
2019-03-01T17:00:55.658Z,6.50
2019-03-01T17:03:44.148Z,6.40
2019-03-01T17:06:32.311Z,6.40
2019-03-01T17:09:21.194Z,6.50
2019-03-01T17:12:08.983Z,6.50
2019-03-01T17:14:57.779Z,6.30
2019-03-01T17:17:46.416Z,6.30
2019-03-01T17:20:37.661Z,6.30
2019-03-01T17:23:24.722Z,6.40
2019-03-01T17:26:12.727Z,6.40
2019-03-01T17:29:03.087Z,6.50
2019-03-01T17:31:50.627Z,6.40
2019-03-01T17:34:38.836Z,6.40
2019-03-01T17:37:28.845Z,6.40
2019-03-01T17:40:17.387Z,6.40
2019-03-01T17:43:05.231Z,6.30
2019-03-01T17:45:54.386Z,6.30
2019-03-01T17:48:43.101Z,6.30
2019-03-01T17:51:31.460Z,6.20
2019-03-01T17:54:22.229Z,6.20
2019-03-01T17:57:09.571Z,6.30
2019-03-01T17:59:57.982Z,6.30
2019-03-01T18:02:48.658Z,6.30
2019-03-01T18:05:37.058Z,6.30
2019-03-01T18:08:25.506Z,6.30
2019-03-01T18:11:13.500Z,6.40
2019-03-01T18:14:02.203Z,6.40
2019-03-01T18:16:49.802Z,6.40
2019-03-01T18:19:38.336Z,6.40
2019-03-01T18:22:27.561Z,6.40
2019-03-01T18:25:16.408Z,6.40
2019-03-01T18:28:05.287Z,6.50
2019-03-01T18:30:56.192Z,6.50
2019-03-01T18:33:43.452Z,6.40
2019-03-01T18:36:32.464Z,6.50
2019-03-01T18:39:19.986Z,6.50
2019-03-01T18:42:08.104Z,6.50
2019-03-01T18:44:56.259Z,6.40
2019-03-01T18:47:44.418Z,6.40
2019-03-01T18:50:32.731Z,6.40
2019-03-01T18:53:25.056Z,6.40
2019-03-01T18:56:12.315Z,6.40
2019-03-01T18:59:00.987Z,6.40
2019-03-01T19:01:49.387Z,6.30
2019-03-01T19:04:37.815Z,6.40
2019-03-01T19:07:27.494Z,6.30
2019-03-01T19:10:16.135Z,6.30
2019-03-01T19:13:05.103Z,6.50
2019-03-01T19:15:54.502Z,6.40
2019-03-01T19:18:43.447Z,6.40
2019-03-01T19:21:31.178Z,6.50
2019-03-01T19:24:19.155Z,6.40
2019-03-01T19:27:09.308Z,6.40
2019-03-01T19:29:57.091Z,6.50
2019-03-01T19:32:45.534Z,6.40
2019-03-01T19:35:33.767Z,6.40
2019-03-01T19:38:25.179Z,6.40
2019-03-01T19:41:11.778Z,6.40
2019-03-01T19:44:00.299Z,6.40
2019-03-01T19:46:51.384Z,6.30
2019-03-01T19:49:38.623Z,6.40
2019-03-01T19:52:26.887Z,6.40
2019-03-01T19:55:14.875Z,6.40
2019-03-01T19:58:03.446Z,6.40
2019-03-01T20:00:51.407Z,6.30
2019-03-01T20:03:42.559Z,6.20
2019-03-01T20:06:29.560Z,6.20
2019-03-01T20:09:17.842Z,6.30
2019-03-01T20:12:05.645Z,6.30
2019-03-01T20:14:53.823Z,6.40
2019-03-01T20:17:44.619Z,6.40
2019-03-01T20:20:33.353Z,6.40
2019-03-01T20:23:22.395Z,6.50
2019-03-01T20:26:10.804Z,6.40
2019-03-01T20:28:58.750Z,6.40
2019-03-01T20:31:47.059Z,6.40
2019-03-01T20:34:37.948Z,6.40
2019-03-01T20:37:27.591Z,6.40
2019-03-01T20:40:14.783Z,6.40
2019-03-01T20:43:06.667Z,6.40
2019-03-01T20:45:52.190Z,6.50
2019-03-01T20:48:40.191Z,6.50
2019-03-01T20:51:28.869Z,6.50
2019-03-01T20:54:17.159Z,6.50
2019-03-01T20:57:05.405Z,6.50
2019-03-01T20:59:53.794Z,6.50
2019-03-01T21:02:42.078Z,6.60
2019-03-01T21:05:30.559Z,6.60
2019-03-01T21:08:18.422Z,6.60
2019-03-01T21:11:06.838Z,6.60
2019-03-01T21:13:55.055Z,6.60
2019-03-01T21:16:44.891Z,6.60
2019-03-01T21:19:32.258Z,6.50
2019-03-01T21:22:20.223Z,6.50
2019-03-01T21:25:09.763Z,6.40
2019-03-01T21:28:00.915Z,6.40
2019-03-01T21:30:48.039Z,6.40
2019-03-01T21:33:36.702Z,6.40
2019-03-01T21:36:26.249Z,6.50
2019-03-01T21:39:14.119Z,6.40
2019-03-01T21:42:02.497Z,6.40
2019-03-01T21:44:50.630Z,6.50
2019-03-01T21:47:39.003Z,6.60
2019-03-01T21:50:27.267Z,6.60
2019-03-01T21:53:15.531Z,6.60
2019-03-01T21:56:04.619Z,6.60
2019-03-01T21:58:53.267Z,6.60
2019-03-01T22:01:42.417Z,6.60
2019-03-01T22:04:30.127Z,6.60
2019-03-01T22:07:18.207Z,6.50
2019-03-01T22:10:07.291Z,6.50
2019-03-01T22:12:56.814Z,6.50
2019-03-01T22:15:44.406Z,6.50
2019-03-01T22:18:32.632Z,6.60
2019-03-01T22:21:22.848Z,6.60
2019-03-01T22:24:11.287Z,6.60
2019-03-01T22:26:59.539Z,6.60
2019-03-01T22:29:48.481Z,6.60
2019-03-01T22:32:37.022Z,6.60
2019-03-01T22:35:25.292Z,6.70
2019-03-01T22:38:13.794Z,6.70
2019-03-01T22:41:03.943Z,6.60
2019-03-01T22:43:51.030Z,6.60
2019-03-01T22:46:38.867Z,6.60
2019-03-01T22:49:28.641Z,6.60
2019-03-01T22:52:17.119Z,6.60
2019-03-01T22:55:06.036Z,6.50
2019-03-01T22:57:57.690Z,6.40
2019-03-01T23:01:17.864Z,6.50
2019-03-01T23:04:06.727Z,6.50
2019-03-01T23:06:54.611Z,6.50
2019-03-01T23:09:46.397Z,6.40
2019-03-01T23:12:32.495Z,6.40
2019-03-01T23:15:20.101Z,6.40
2019-03-01T23:18:08.185Z,6.40
2019-03-01T23:20:57.706Z,6.40
2019-03-01T23:23:46.111Z,6.50
2019-03-01T23:26:34.553Z,6.50
2019-03-01T23:29:22.319Z,6.50
2019-03-01T23:32:11.894Z,6.40
2019-03-01T23:35:00.094Z,6.60
2019-03-01T23:37:48.519Z,6.50
2019-03-01T23:40:36.911Z,6.40
2019-03-01T23:43:27.586Z,6.50
2019-03-01T23:46:15.023Z,6.50
2019-03-01T23:49:06.482Z,6.50
2019-03-01T23:51:53.703Z,6.60
2019-03-01T23:54:44.232Z,6.60
2019-03-01T23:57:31.974Z,6.60
